createdAt,value
2018-02-24T00:01:44.339Z,22.97
2018-02-24T00:03:49.926Z,23.10
2018-02-24T00:05:55.656Z,22.23
2018-02-24T00:08:01.856Z,22.47
2018-02-24T00:10:07.778Z,20.60
2018-02-24T00:12:13.091Z,22.37
2018-02-24T00:14:19.383Z,22.37
2018-02-24T00:16:25.014Z,21.70
2018-02-24T00:18:30.969Z,22.83
2018-02-24T00:20:36.878Z,22.93
2018-02-24T00:22:49.268Z,23.23
2018-02-24T00:24:54.551Z,22.30
2018-02-24T00:27:02.313Z,23.33
2018-02-24T00:29:08.350Z,21.77
2018-02-24T00:31:14.261Z,22.07
2018-02-24T00:33:19.917Z,21.50
2018-02-24T00:35:25.610Z,21.40
2018-02-24T00:37:31.463Z,22.27
2018-02-24T00:39:37.673Z,21.80
2018-02-24T00:41:43.045Z,22.30
2018-02-24T00:43:48.971Z,22.13
2018-02-24T00:45:55.252Z,21.60
2018-02-24T00:48:00.755Z,22.73
2018-02-24T00:50:06.647Z,24.30
2018-02-24T00:52:11.970Z,22.77
2018-02-24T00:54:17.618Z,23.50
2018-02-24T00:56:23.275Z,21.63
2018-02-24T00:58:28.674Z,23.27
2018-02-24T01:00:34.965Z,21.93
2018-02-24T01:02:40.855Z,22.60
2018-02-24T01:04:46.620Z,22.57
2018-02-24T01:06:53.113Z,21.73
2018-02-24T01:08:59.547Z,24.10
2018-02-24T01:11:05.460Z,22.60
2018-02-24T01:13:11.252Z,23.30
2018-02-24T01:15:17.262Z,23.77
2018-02-24T01:17:22.934Z,22.20
2018-02-24T01:19:30.239Z,24.10
2018-02-24T01:21:36.079Z,22.77
2018-02-24T01:23:42.146Z,22.57
2018-02-24T01:25:48.085Z,23.30
2018-02-24T01:27:54.262Z,23.70
2018-02-24T01:30:01.340Z,23.27
2018-02-24T01:32:07.283Z,22.60
2018-02-24T01:34:13.526Z,23.30
2018-02-24T01:36:19.307Z,23.60
2018-02-24T01:38:25.364Z,22.90
2018-02-24T01:40:31.422Z,23.80
2018-02-24T01:42:37.432Z,23.70
2018-02-24T01:44:43.340Z,23.27
2018-02-24T01:46:49.112Z,23.30
2018-02-24T01:48:54.702Z,24.80
2018-02-24T01:51:00.856Z,22.70
2018-02-24T01:53:06.822Z,22.93
2018-02-24T01:55:12.116Z,23.23
2018-02-24T01:57:17.866Z,23.60
2018-02-24T01:59:24.570Z,22.83
2018-02-24T02:01:30.195Z,23.77
2018-02-24T02:03:36.456Z,24.97
2018-02-24T02:05:42.464Z,24.40
2018-02-24T02:07:48.157Z,22.97
2018-02-24T02:09:54.415Z,25.27
2018-02-24T02:12:02.388Z,24.00
2018-02-24T02:14:07.606Z,24.43
2018-02-24T02:16:14.540Z,23.90
2018-02-24T02:18:20.463Z,24.10
2018-02-24T02:20:26.541Z,25.33
2018-02-24T02:22:32.646Z,24.60
2018-02-24T02:24:38.462Z,25.93
2018-02-24T02:26:44.383Z,25.37
2018-02-24T02:28:50.841Z,24.40
2018-02-24T02:30:57.660Z,23.27
2018-02-24T02:33:03.549Z,22.77
2018-02-24T02:35:09.395Z,23.67
2018-02-24T02:37:15.993Z,23.53
2018-02-24T02:39:22.123Z,22.70
2018-02-24T02:41:27.710Z,24.10
2018-02-24T02:43:33.641Z,24.00
2018-02-24T02:45:39.827Z,25.37
2018-02-24T02:47:45.972Z,23.47
2018-02-24T02:49:51.908Z,23.60
2018-02-24T02:51:59.142Z,24.97
2018-02-24T02:54:05.081Z,23.73
2018-02-24T02:56:11.052Z,24.73
2018-02-24T02:58:16.728Z,25.33
2018-02-24T03:00:23.116Z,23.70
2018-02-24T03:02:29.240Z,23.07
2018-02-24T03:04:35.200Z,24.80
2018-02-24T03:06:41.940Z,24.63
2018-02-24T03:08:48.196Z,25.33
2018-02-24T03:10:54.124Z,24.03
2018-02-24T03:13:05.192Z,25.20
2018-02-24T03:15:10.978Z,23.33
2018-02-24T03:17:17.541Z,23.10
2018-02-24T03:19:24.035Z,22.90
2018-02-24T03:21:29.470Z,23.50
2018-02-24T03:23:39.667Z,23.83
2018-02-24T03:25:45.687Z,24.47
2018-02-24T03:27:51.901Z,24.30
2018-02-24T03:29:58.436Z,25.13
2018-02-24T03:32:05.583Z,23.27
2018-02-24T03:34:11.783Z,24.80
2018-02-24T03:36:18.148Z,23.90
2018-02-24T03:38:24.408Z,24.30
2018-02-24T03:40:30.370Z,23.70
2018-02-24T03:42:36.456Z,23.80
2018-02-24T03:44:43.154Z,25.03
2018-02-24T03:46:48.905Z,23.90
2018-02-24T03:48:56.574Z,25.23
2018-02-24T03:51:02.938Z,24.67
2018-02-24T03:53:09.846Z,24.50
2018-02-24T03:55:15.988Z,24.70
2018-02-24T03:57:22.371Z,24.53
2018-02-24T03:59:35.508Z,22.50
2018-02-24T04:01:41.546Z,24.97
2018-02-24T04:03:47.390Z,24.30
2018-02-24T04:05:53.480Z,23.20
2018-02-24T04:07:59.949Z,25.23
2018-02-24T04:10:05.895Z,24.93
2018-02-24T04:12:11.869Z,24.60
2018-02-24T04:14:22.228Z,23.43
2018-02-24T04:16:28.352Z,23.70
2018-02-24T04:18:34.440Z,25.80
2018-02-24T04:20:40.411Z,24.17
2018-02-24T04:22:46.286Z,24.13
2018-02-24T04:24:51.911Z,25.30
2018-02-24T04:26:59.123Z,24.83
2018-02-24T04:29:05.176Z,24.87
2018-02-24T04:31:11.549Z,24.00
2018-02-24T04:33:17.652Z,23.60
2018-02-24T04:35:23.592Z,24.23
2018-02-24T04:37:29.504Z,24.27
2018-02-24T04:39:35.378Z,24.73
2018-02-24T04:41:40.976Z,23.47
2018-02-24T04:43:46.915Z,25.10
2018-02-24T04:45:52.744Z,24.37
2018-02-24T04:48:00.242Z,24.63
2018-02-24T04:50:06.722Z,23.63
2018-02-24T04:52:12.711Z,23.87
2018-02-24T04:54:18.631Z,25.30
2018-02-24T04:56:24.846Z,24.30
2018-02-24T04:58:30.884Z,23.63
2018-02-24T05:00:37.057Z,23.43
2018-02-24T05:02:42.615Z,23.83
2018-02-24T05:04:48.626Z,24.67
2018-02-24T05:06:54.672Z,24.77
2018-02-24T05:09:00.554Z,24.53
2018-02-24T05:11:06.815Z,23.17
2018-02-24T05:13:12.848Z,23.23
2018-02-24T05:15:18.617Z,23.13
2018-02-24T05:17:24.612Z,24.40
2018-02-24T05:19:30.603Z,24.80
2018-02-24T05:21:36.925Z,24.20
2018-02-24T05:23:42.736Z,25.23
2018-02-24T05:25:48.505Z,24.63
2018-02-24T05:27:54.160Z,24.30
2018-02-24T05:30:01.404Z,25.40
2018-02-24T05:32:07.336Z,23.10
2018-02-24T05:34:13.169Z,22.63
2018-02-24T05:36:19.206Z,23.83
2018-02-24T05:38:25.367Z,24.23
2018-02-24T05:40:31.044Z,23.07
2018-02-24T05:42:36.843Z,24.77
2018-02-24T05:44:42.784Z,24.10
2018-02-24T05:46:49.081Z,23.53
2018-02-24T05:48:54.762Z,23.53
2018-02-24T05:51:01.402Z,23.60
2018-02-24T05:53:07.460Z,22.43
2018-02-24T05:55:13.621Z,22.60
2018-02-24T05:57:19.706Z,23.17
2018-02-24T05:59:25.829Z,24.03
2018-02-24T06:01:31.594Z,23.30
2018-02-24T06:03:37.459Z,23.23
2018-02-24T06:05:43.870Z,23.60
2018-02-24T06:07:49.386Z,22.67
2018-02-24T06:09:55.794Z,22.50
2018-02-24T06:12:01.854Z,23.40
2018-02-24T06:14:07.988Z,22.43
2018-02-24T06:16:13.654Z,22.60
2018-02-24T06:18:20.056Z,25.80
2018-02-24T06:20:26.835Z,22.07
2018-02-24T06:22:32.942Z,21.47
2018-02-24T06:24:38.278Z,22.20
2018-02-24T06:26:44.828Z,23.13
2018-02-24T06:28:50.502Z,22.30
2018-02-24T06:30:57.847Z,23.07
2018-02-24T06:33:03.820Z,21.43
2018-02-24T06:35:09.906Z,22.30
2018-02-24T06:37:15.851Z,21.70
2018-02-24T06:39:28.820Z,23.17
2018-02-24T06:41:34.239Z,22.50
2018-02-24T06:43:40.406Z,22.80
2018-02-24T06:45:46.324Z,22.47
2018-02-24T06:47:52.346Z,22.07
2018-02-24T06:49:59.378Z,22.47
2018-02-24T06:52:05.434Z,22.63
2018-02-24T06:54:10.854Z,22.27
2018-02-24T06:56:16.668Z,22.10
2018-02-24T06:58:22.711Z,21.77
2018-02-24T07:00:28.997Z,21.07
2018-02-24T07:02:35.088Z,21.70
2018-02-24T07:04:41.305Z,22.50
2018-02-24T07:06:47.680Z,23.83
2018-02-24T07:08:53.014Z,23.80
2018-02-24T07:10:59.438Z,21.57
2018-02-24T07:13:05.653Z,21.80
2018-02-24T07:15:11.526Z,23.20
2018-02-24T07:17:27.976Z,24.00
2018-02-24T07:19:33.456Z,23.83
2018-02-24T07:21:38.806Z,21.43
2018-02-24T07:23:44.580Z,22.60
2018-02-24T07:25:50.973Z,22.53
2018-02-24T07:27:57.796Z,23.13
2018-02-24T07:30:03.698Z,22.87
2018-02-24T07:32:13.904Z,24.10
2018-02-24T07:34:19.717Z,23.13
2018-02-24T07:36:24.999Z,24.03
2018-02-24T07:38:31.461Z,21.77
2018-02-24T07:40:36.766Z,22.33
2018-02-24T07:42:42.130Z,23.70
2018-02-24T07:44:47.836Z,23.20
2018-02-24T07:46:53.542Z,23.47
2018-02-24T07:49:00.491Z,22.93
2018-02-24T07:51:05.922Z,24.47
2018-02-24T07:53:11.807Z,23.30
2018-02-24T07:55:17.920Z,23.27
2018-02-24T07:57:23.776Z,22.70
2018-02-24T07:59:29.598Z,23.90
2018-02-24T08:01:35.808Z,23.17
2018-02-24T08:03:42.065Z,22.73
2018-02-24T08:08:08.412Z,22.90
2018-02-24T08:10:14.586Z,22.77
2018-02-24T08:12:20.501Z,21.87
2018-02-24T08:14:26.286Z,24.00
2018-02-24T08:16:32.122Z,24.27
2018-02-24T08:18:38.968Z,24.70
2018-02-24T08:20:44.631Z,23.00
2018-02-24T08:22:50.366Z,24.20
2018-02-24T08:24:56.736Z,23.80
2018-02-24T08:27:02.486Z,23.13
2018-02-24T08:29:07.809Z,21.57
2018-02-24T08:31:13.747Z,23.87
2018-02-24T08:33:19.895Z,21.97
2018-02-24T08:35:25.777Z,22.60
2018-02-24T08:37:31.896Z,23.43
2018-02-24T08:39:39.118Z,22.53
2018-02-24T08:41:45.076Z,22.93
2018-02-24T08:43:50.411Z,22.23
2018-02-24T08:45:59.058Z,22.80
2018-02-24T08:48:04.730Z,22.17
2018-02-24T08:50:10.124Z,22.03
2018-02-24T08:52:16.383Z,22.70
2018-02-24T08:54:22.042Z,22.20
2018-02-24T08:56:27.304Z,22.30
2018-02-24T08:58:32.956Z,21.63
2018-02-24T09:00:38.233Z,21.80
2018-02-24T09:02:43.556Z,21.17
2018-02-24T09:04:49.479Z,22.37
2018-02-24T09:06:55.920Z,21.87
2018-02-24T09:09:01.234Z,24.07
2018-02-24T09:11:06.598Z,20.77
2018-02-24T09:13:12.748Z,20.53
2018-02-24T09:15:18.618Z,21.10
2018-02-24T09:17:23.864Z,21.63
2018-02-24T09:19:30.068Z,21.00
2018-02-24T09:21:35.473Z,21.33
2018-02-24T09:23:40.972Z,21.03
2018-02-24T09:25:46.860Z,20.70
2018-02-24T09:27:52.198Z,21.20
2018-02-24T09:29:57.557Z,21.23
2018-02-24T09:32:03.538Z,21.93
2018-02-24T09:34:09.292Z,20.03
2018-02-24T09:36:15.077Z,19.57
2018-02-24T09:38:20.709Z,20.73
2018-02-24T09:40:26.576Z,20.20
2018-02-24T09:42:32.656Z,19.90
2018-02-24T09:44:38.661Z,19.73
2018-02-24T09:46:44.499Z,20.20
2018-02-24T09:48:49.803Z,20.83
2018-02-24T09:50:55.903Z,20.10
2018-02-24T09:53:03.178Z,19.30
2018-02-24T09:55:08.507Z,19.23
2018-02-24T09:57:14.141Z,18.80
2018-02-24T09:59:20.004Z,19.67
2018-02-24T10:01:26.819Z,18.70
2018-02-24T10:03:32.456Z,19.50
2018-02-24T10:05:38.103Z,19.60
2018-02-24T10:07:45.612Z,18.43
2018-02-24T10:09:51.245Z,17.50
2018-02-24T10:11:57.290Z,19.33
2018-02-24T10:14:03.838Z,18.17
2018-02-24T10:16:09.494Z,18.73
2018-02-24T10:18:14.824Z,18.20
2018-02-24T10:20:20.366Z,18.10
2018-02-24T10:22:25.929Z,17.60
2018-02-24T10:24:31.274Z,18.80
2018-02-24T10:26:37.570Z,18.07
2018-02-24T10:28:43.658Z,18.30
2018-02-24T10:30:49.690Z,17.50
2018-02-24T10:32:55.540Z,17.40
2018-02-24T10:35:06.940Z,17.90
2018-02-24T10:37:12.296Z,17.83
2018-02-24T10:39:17.678Z,16.53
2018-02-24T10:41:23.385Z,17.67
2018-02-24T10:43:28.780Z,17.40
2018-02-24T10:45:34.112Z,18.40
2018-02-24T10:47:40.324Z,18.10
2018-02-24T10:49:45.692Z,17.83
2018-02-24T10:51:50.968Z,16.20
2018-02-24T10:53:57.946Z,16.70
2018-02-24T10:56:04.161Z,16.87
2018-02-24T10:58:09.557Z,17.37
2018-02-24T11:00:15.773Z,16.70
2018-02-24T11:02:21.041Z,15.40
2018-02-24T11:04:26.625Z,16.23
2018-02-24T11:06:32.746Z,15.50
2018-02-24T11:08:38.047Z,16.90
2018-02-24T11:10:43.491Z,16.70
2018-02-24T11:12:49.141Z,15.50
2018-02-24T11:14:54.556Z,16.10
2018-02-24T11:17:01.252Z,15.27
2018-02-24T11:19:06.823Z,14.70
2018-02-24T11:21:12.129Z,16.27
2018-02-24T11:23:17.532Z,15.17
2018-02-24T11:25:23.128Z,16.00
2018-02-24T11:27:28.480Z,15.27
2018-02-24T11:29:34.061Z,14.33
2018-02-24T11:31:39.925Z,14.87
2018-02-24T11:33:45.268Z,15.17
2018-02-24T11:35:50.666Z,15.13
2018-02-24T11:37:56.310Z,15.30
2018-02-24T11:40:01.717Z,14.70
2018-02-24T11:42:11.517Z,15.23
2018-02-24T11:44:17.144Z,15.87
2018-02-24T11:46:22.541Z,15.20
2018-02-24T11:48:28.133Z,14.30
2018-02-24T11:50:33.784Z,14.67
2018-02-24T11:52:39.114Z,15.53
2018-02-24T11:54:44.423Z,14.23
2018-02-24T11:56:50.652Z,14.43
2018-02-24T11:58:55.922Z,13.57
2018-02-24T12:01:02.477Z,14.33
2018-02-24T12:03:08.384Z,13.57
2018-02-24T12:05:13.697Z,13.90
2018-02-24T12:07:19.008Z,14.20
2018-02-24T12:09:24.867Z,14.63
2018-02-24T12:11:36.304Z,15.63
2018-02-24T12:13:41.614Z,13.40
2018-02-24T12:15:47.247Z,14.20
2018-02-24T12:17:52.867Z,14.10
2018-02-24T12:19:58.237Z,13.87
2018-02-24T12:22:04.918Z,13.77
2018-02-24T12:24:11.921Z,14.60
2018-02-24T12:26:17.510Z,13.83
2018-02-24T12:28:23.565Z,14.03
2018-02-24T12:30:33.792Z,14.43
2018-02-24T12:32:40.331Z,13.50
2018-02-24T12:34:49.775Z,13.13
2018-02-24T12:36:58.233Z,12.60
2018-02-24T12:39:05.738Z,13.30
2018-02-24T12:41:11.379Z,12.83
2018-02-24T12:43:16.707Z,12.10
2018-02-24T12:45:22.065Z,13.00
2018-02-24T12:47:27.753Z,11.97
2018-02-24T12:49:33.399Z,11.83
2018-02-24T12:51:39.364Z,12.20
2018-02-24T12:53:45.208Z,11.60
2018-02-24T12:55:50.532Z,12.40
2018-02-24T12:57:56.270Z,12.67
2018-02-24T13:00:02.792Z,12.47
2018-02-24T13:02:08.146Z,12.60
2018-02-24T13:04:13.564Z,12.60
2018-02-24T13:06:19.388Z,11.97
2018-02-24T13:08:24.764Z,11.60
2018-02-24T13:10:30.060Z,11.83
2018-02-24T13:12:35.848Z,11.33
2018-02-24T13:14:41.266Z,10.87
2018-02-24T13:16:47.410Z,10.60
2018-02-24T13:18:53.262Z,11.13
2018-02-24T13:21:01.574Z,11.30
2018-02-24T13:23:10.730Z,10.97
2018-02-24T13:25:16.756Z,11.60
2018-02-24T13:27:28.458Z,10.37
2018-02-24T13:29:34.088Z,10.57
2018-02-24T13:31:40.487Z,11.17
2018-02-24T13:33:46.470Z,11.07
2018-02-24T13:35:52.880Z,10.13
2018-02-24T13:38:00.908Z,10.30
